メインページ
METAR-TAF:

METAR-TAF

空港 :

Huron County Memorial Airport

バッドアックス, ミシガン州, アメリカ合衆国

緯度: 43-46-51N, 経度: 082-59-08W, 海抜: 233m

現時点の気象観測

当レポートは19分前の13:20(UTC)に作成
西の風 3kt
気温 28°C
湿度 58%
気圧 1009 hPa
視程: 16.1km
高度7500ftの雲は散在している
高度8500ftの雲は散在している

METAR: KBAX 201320Z AUTO 28003KT 10SM SCT075 SCT085 28/19 A2980 RMK AO2 T02820191

時間: 09:39 (13:39 UTC)


TAF: 見つかりません

4,000以上の空港の気象観測と天気予報(METAR報とTAF報)

利用可能な観測所は地図上に黄色い丸と赤い丸で示す。

丸の上にカーソルを重ねると観測所名を参照できる。

次にクリックすると気象観測と天気予報を参照できる。

マップの切り替え:黒色「×」印の緑ボタンをクリックして拡大、「-」印の緑ボタンをクリックして縮小、緑色の三角印をクリックして隣りの地図に切り替え


METAR-TAF: